Time;durP1;ratioP1;P1;durP2;ratioP2;P2;SDS_P1;SDS_P2;PMS_P1;PMS_P2;Temp;Humidity;BMP_temperature;BMP_pressure;BME280_temperature;BME280_humidity;BME280_pressure;Samples;Min_cycle;Max_cycle;Signal;HPM_P1;HPM_P2
2023/08/08 00:01:22;;;;;;;9.23;2.30;;;13.80;99.90;;;;;;5029143;28;20040;-63
2023/08/08 00:03:48;;;;;;;6.50;2.22;;;13.80;99.90;;;;;;5037044;28;20393;-59
2023/08/08 00:06:13;;;;;;;7.28;2.15;;;13.80;99.90;;;;;;5039097;28;20029;-62
2023/08/08 00:08:39;;;;;;;5.75;2.15;;;13.80;99.90;;;;;;5028622;28;20056;-62
2023/08/08 00:11:05;;;;;;;4.93;2.30;;;13.80;99.90;;;;;;5030033;28;20032;-64
2023/08/08 00:13:30;;;;;;;4.65;2.00;;;13.70;99.90;;;;;;5029264;28;20103;-61
2023/08/08 00:15:56;;;;;;;3.80;2.20;;;13.80;99.90;;;;;;5028843;28;20385;-63
2023/08/08 00:18:21;;;;;;;8.68;2.50;;;13.80;99.90;;;;;;5029020;28;20038;-63
2023/08/08 00:20:47;;;;;;;5.47;2.67;;;13.80;99.90;;;;;;5028810;28;20038;-61
2023/08/08 00:23:12;;;;;;;15.00;3.00;;;13.70;99.90;;;;;;5027961;28;20072;-62
2023/08/08 00:25:38;;;;;;;7.03;2.22;;;13.70;99.90;;;;;;5029107;28;20022;-62
2023/08/08 00:28:04;;;;;;;4.80;2.70;;;13.70;99.90;;;;;;5029005;28;20455;-62
2023/08/08 00:30:29;;;;;;;11.80;2.35;;;13.80;99.90;;;;;;5028474;28;20617;-60
2023/08/08 00:32:55;;;;;;;6.50;2.20;;;13.70;99.90;;;;;;5035997;28;20029;-63
2023/08/08 00:35:20;;;;;;;6.00;3.03;;;13.70;99.90;;;;;;5034386;28;20029;-61
2023/08/08 00:37:46;;;;;;;5.97;2.40;;;13.60;99.90;;;;;;5027664;28;20405;-61
2023/08/08 00:40:11;;;;;;;3.75;2.55;;;13.60;99.90;;;;;;5027744;28;20044;-62
2023/08/08 00:42:37;;;;;;;7.50;2.70;;;13.50;99.90;;;;;;5025806;28;20036;-62
2023/08/08 00:45:03;;;;;;;4.90;2.33;;;13.30;99.90;;;;;;5028000;28;20079;-62
2023/08/08 00:47:31;;;;;;;8.05;2.60;;;13.20;99.90;;;;;;5023892;28;20029;-62
2023/08/08 00:49:57;;;;;;;6.50;3.30;;;13.10;99.90;;;;;;5029089;28;20025;-61
2023/08/08 00:52:23;;;;;;;7.45;2.72;;;13.10;99.90;;;;;;5030943;28;20028;-63
2023/08/08 00:54:48;;;;;;;4.85;2.50;;;13.00;99.90;;;;;;5028439;28;20464;-62
2023/08/08 00:57:14;;;;;;;7.72;2.95;;;13.00;99.90;;;;;;5027402;28;20034;-60
2023/08/08 00:59:40;;;;;;;4.78;2.63;;;12.90;99.90;;;;;;5026455;28;20121;-62
2023/08/08 01:02:05;;;;;;;5.03;2.60;;;12.80;99.90;;;;;;5026418;28;20037;-62
2023/08/08 01:04:31;;;;;;;3.72;2.55;;;12.70;99.90;;;;;;5027364;28;20088;-61
2023/08/08 01:07:36;;;;;;;10.57;3.45;;;12.80;99.90;;;;;;5030234;28;20026;-62
2023/08/08 01:10:08;;;;;;;7.53;2.83;;;12.70;99.90;;;;;;5014423;28;20041;-62
2023/08/08 01:12:51;;;;;;;6.43;2.72;;;12.60;99.90;;;;;;5029625;28;20108;-64
2023/08/08 01:15:18;;;;;;;7.68;2.95;;;12.50;99.90;;;;;;5030462;28;20033;-62
2023/08/08 01:17:45;;;;;;;6.97;3.20;;;12.50;99.90;;;;;;5031486;28;20021;-62
2023/08/08 01:20:16;;;;;;;5.50;2.90;;;12.50;99.90;;;;;;5037481;28;20392;-61
2023/08/08 01:22:56;;;;;;;7.45;3.10;;;12.40;99.90;;;;;;5030102;28;20036;-60
2023/08/08 01:25:22;;;;;;;6.55;3.15;;;12.40;99.90;;;;;;5034883;28;20029;-63
2023/08/08 01:27:48;;;;;;;11.15;3.15;;;12.30;99.90;;;;;;5027756;28;20694;-60
2023/08/08 01:30:14;;;;;;;8.27;3.28;;;12.30;99.90;;;;;;5031009;28;20128;-61
2023/08/08 01:32:40;;;;;;;7.72;2.80;;;12.30;99.90;;;;;;5033063;28;20037;-61
2023/08/08 01:35:07;;;;;;;3.85;2.80;;;12.20;99.90;;;;;;5034897;28;20067;-60
2023/08/08 01:37:37;;;;;;;7.18;3.08;;;12.20;99.90;;;;;;5032709;28;20040;-62
2023/08/08 01:40:05;;;;;;;9.15;3.05;;;12.20;99.90;;;;;;5033532;28;20375;-62
2023/08/08 01:42:32;;;;;;;6.72;2.80;;;12.10;99.90;;;;;;5026539;28;20025;-61
2023/08/08 01:44:58;;;;;;;3.75;3.00;;;12.10;99.90;;;;;;5030892;28;20025;-63
2023/08/08 01:47:24;;;;;;;7.53;2.60;;;12.20;99.90;;;;;;5028189;28;20657;-62
2023/08/08 01:49:49;;;;;;;4.55;2.38;;;12.10;99.90;;;;;;5041817;28;20025;-62
2023/08/08 01:52:15;;;;;;;5.63;3.10;;;12.10;99.90;;;;;;5028500;28;20040;-60
2023/08/08 01:54:42;;;;;;;4.88;3.60;;;12.30;99.90;;;;;;5031292;28;20146;-60
2023/08/08 01:57:08;;;;;;;9.13;3.45;;;12.30;99.90;;;;;;5028507;28;20063;-62
2023/08/08 01:59:33;;;;;;;9.95;2.95;;;12.30;99.90;;;;;;5037179;28;20158;-62
2023/08/08 02:01:59;;;;;;;6.97;3.65;;;12.30;99.90;;;;;;5037399;28;20025;-62
2023/08/08 02:04:24;;;;;;;7.47;3.13;;;12.40;99.90;;;;;;5027829;28;20537;-62
2023/08/08 02:06:50;;;;;;;11.13;3.33;;;12.40;99.90;;;;;;5029373;28;20501;-62
2023/08/08 02:09:15;;;;;;;5.00;3.25;;;12.40;99.90;;;;;;5030008;28;20033;-62
2023/08/08 02:11:42;;;;;;;8.05;3.13;;;12.50;99.90;;;;;;5032437;28;20068;-61
2023/08/08 02:14:07;;;;;;;6.75;3.22;;;12.50;99.90;;;;;;5034726;28;20496;-60
2023/08/08 02:16:34;;;;;;;6.25;2.92;;;12.50;99.90;;;;;;5036158;28;20041;-59
2023/08/08 02:19:00;;;;;;;4.20;2.53;;;12.50;99.90;;;;;;5029044;28;20031;-62
2023/08/08 02:21:25;;;;;;;9.18;3.00;;;12.50;99.90;;;;;;5031376;28;20029;-63
2023/08/08 02:23:51;;;;;;;8.27;3.00;;;12.60;99.90;;;;;;5032304;28;20384;-62
2023/08/08 02:26:16;;;;;;;7.65;2.85;;;12.60;99.90;;;;;;5032352;28;20120;-62
2023/08/08 02:28:43;;;;;;;7.25;3.55;;;12.70;99.90;;;;;;5030300;28;20017;-63
2023/08/08 02:31:08;;;;;;;4.78;2.67;;;12.60;99.90;;;;;;5039120;28;20373;-62
2023/08/08 02:33:34;;;;;;;5.95;2.70;;;12.70;99.90;;;;;;5033490;28;20091;-63
2023/08/08 02:36:00;;;;;;;7.93;2.67;;;12.70;99.90;;;;;;5030248;28;20053;-61
2023/08/08 02:38:25;;;;;;;5.68;2.60;;;12.70;99.90;;;;;;5037630;28;20017;-62
2023/08/08 02:40:51;;;;;;;6.20;2.80;;;12.70;99.90;;;;;;5035060;28;20925;-61
2023/08/08 02:43:16;;;;;;;7.18;2.70;;;12.70;99.90;;;;;;5030842;28;20413;-61
2023/08/08 02:45:42;;;;;;;11.93;2.90;;;12.80;99.90;;;;;;5037304;28;20108;-62
2023/08/08 02:48:07;;;;;;;4.85;2.90;;;12.80;99.90;;;;;;5038247;28;20028;-61
2023/08/08 02:50:33;;;;;;;7.80;2.55;;;12.90;99.90;;;;;;5030051;28;20551;-61
2023/08/08 02:52:58;;;;;;;4.57;1.90;;;13.00;99.90;;;;;;5032140;28;20032;-60
2023/08/08 02:55:24;;;;;;;7.72;2.88;;;13.00;99.90;;;;;;5029981;28;20095;-61
2023/08/08 02:57:50;;;;;;;6.65;2.30;;;13.00;99.90;;;;;;5034585;28;20037;-60
2023/08/08 03:00:15;;;;;;;6.03;2.15;;;13.00;99.90;;;;;;5031816;28;20091;-60
2023/08/08 03:02:41;;;;;;;4.93;2.30;;;13.00;99.90;;;;;;5030027;28;20068;-61
2023/08/08 03:05:07;;;;;;;5.15;2.40;;;13.00;99.90;;;;;;5028863;28;20053;-61
2023/08/08 03:07:32;;;;;;;11.25;2.47;;;13.10;99.90;;;;;;5030567;28;20053;-62
2023/08/08 03:09:58;;;;;;;7.95;2.30;;;13.20;99.90;;;;;;5035755;28;20370;-63
2023/08/08 03:12:23;;;;;;;6.03;2.63;;;13.20;99.90;;;;;;5031179;28;20026;-62
2023/08/08 03:14:49;;;;;;;12.43;2.47;;;13.30;99.90;;;;;;5029359;28;20082;-62
2023/08/08 03:17:14;;;;;;;10.27;2.08;;;13.30;99.90;;;;;;5035278;28;20485;-62
2023/08/08 03:19:40;;;;;;;5.05;2.17;;;13.30;99.90;;;;;;5034115;28;20600;-60
2023/08/08 03:22:05;;;;;;;3.72;2.47;;;13.20;99.90;;;;;;5028270;28;20366;-62
2023/08/08 03:24:31;;;;;;;3.20;1.92;;;13.20;99.90;;;;;;5029168;28;20029;-62
2023/08/08 03:26:56;;;;;;;8.43;2.25;;;13.20;99.90;;;;;;5026813;28;20025;-62
2023/08/08 03:29:22;;;;;;;5.78;1.98;;;13.30;99.90;;;;;;5028731;28;20025;-61
2023/08/08 03:31:47;;;;;;;4.72;2.20;;;13.30;99.90;;;;;;5031414;28;20103;-62
2023/08/08 03:34:13;;;;;;;3.53;2.00;;;13.30;99.90;;;;;;5032426;28;20160;-63
2023/08/08 03:36:38;;;;;;;7.82;1.90;;;13.40;99.90;;;;;;5025024;28;20099;-60
2023/08/08 03:39:04;;;;;;;7.13;2.25;;;13.30;99.90;;;;;;5032038;28;20034;-58
2023/08/08 03:41:29;;;;;;;8.02;2.30;;;13.40;99.90;;;;;;5030513;28;20029;-61
2023/08/08 03:43:56;;;;;;;6.57;2.13;;;13.40;99.90;;;;;;5031695;28;20026;-59
2023/08/08 03:46:22;;;;;;;7.05;1.77;;;13.50;99.90;;;;;;5033969;28;20025;-62
2023/08/08 03:48:47;;;;;;;2.58;1.50;;;13.40;99.90;;;;;;5030176;28;20493;-60
2023/08/08 03:51:13;;;;;;;8.63;2.22;;;13.40;99.90;;;;;;5036076;28;20060;-60
2023/08/08 03:53:39;;;;;;;7.72;1.90;;;13.40;99.90;;;;;;5029690;28;20053;-62
2023/08/08 03:56:04;;;;;;;7.75;2.00;;;13.40;99.90;;;;;;5035094;28;20029;-61
2023/08/08 03:58:30;;;;;;;6.47;1.75;;;13.40;99.90;;;;;;5027028;28;20103;-61
2023/08/08 04:00:56;;;;;;;4.85;1.80;;;13.40;99.90;;;;;;5031333;28;20102;-61
2023/08/08 04:03:22;;;;;;;5.32;1.88;;;13.30;99.90;;;;;;5024842;28;20021;-62
2023/08/08 04:05:47;;;;;;;7.15;1.83;;;13.30;99.90;;;;;;5029400;28;20021;-62
2023/08/08 04:08:14;;;;;;;5.03;1.98;;;13.40;99.90;;;;;;5034169;28;20022;-63
2023/08/08 04:10:40;;;;;;;7.57;2.25;;;13.40;99.90;;;;;;5033493;28;20033;-61
2023/08/08 04:13:05;;;;;;;3.45;2.00;;;13.40;99.90;;;;;;5028521;28;20039;-64
2023/08/08 04:15:31;;;;;;;9.68;2.10;;;13.40;99.90;;;;;;5031080;28;20432;-62
2023/08/08 04:17:56;;;;;;;9.75;2.33;;;13.40;99.90;;;;;;5029072;28;20021;-61
2023/08/08 04:20:22;;;;;;;5.53;1.80;;;13.40;99.90;;;;;;5035105;28;20108;-61
2023/08/08 04:22:48;;;;;;;5.82;2.47;;;13.40;99.90;;;;;;5027990;28;20397;-55
2023/08/08 04:25:14;;;;;;;10.60;2.28;;;13.40;99.90;;;;;;5026790;28;20044;-55
2023/08/08 04:27:40;;;;;;;8.70;2.40;;;13.50;99.90;;;;;;5028588;28;20030;-56
2023/08/08 04:30:06;;;;;;;11.63;2.55;;;13.50;99.90;;;;;;5030320;28;20083;-52
2023/08/08 04:32:32;;;;;;;4.30;2.38;;;13.50;99.90;;;;;;5028922;28;20040;-59
2023/08/08 04:34:58;;;;;;;6.22;1.90;;;13.60;99.90;;;;;;5038253;28;20034;-55
2023/08/08 04:37:23;;;;;;;12.88;2.97;;;13.50;99.90;;;;;;5031674;28;20032;-54
2023/08/08 04:39:49;;;;;;;8.98;2.15;;;13.50;99.90;;;;;;5031009;28;20489;-56
2023/08/08 04:42:14;;;;;;;13.23;2.53;;;13.50;99.90;;;;;;5032469;28;20033;-58
2023/08/08 04:44:40;;;;;;;7.68;2.38;;;13.50;99.90;;;;;;5027009;28;20112;-55
2023/08/08 04:47:05;;;;;;;12.00;2.85;;;13.50;99.90;;;;;;5025210;28;20038;-53
2023/08/08 04:49:31;;;;;;;8.38;2.70;;;13.50;99.90;;;;;;5033722;28;20084;-60
2023/08/08 04:51:56;;;;;;;8.10;3.63;;;13.50;99.90;;;;;;5036950;28;20057;-53
2023/08/08 04:54:22;;;;;;;10.68;3.00;;;13.50;99.90;;;;;;5031809;28;20084;-58
2023/08/08 04:56:47;;;;;;;7.88;2.35;;;13.50;99.90;;;;;;5028305;28;20088;-57
2023/08/08 04:59:13;;;;;;;11.55;3.03;;;13.60;99.90;;;;;;5028101;28;20511;-55
2023/08/08 05:01:38;;;;;;;14.48;2.95;;;13.60;99.90;;;;;;5030179;28;20639;-58
2023/08/08 05:04:04;;;;;;;15.02;3.28;;;13.70;99.90;;;;;;5036152;28;20563;-55
2023/08/08 05:06:30;;;;;;;17.35;3.60;;;13.70;99.90;;;;;;5036911;28;20022;-61
2023/08/08 05:08:56;;;;;;;13.35;3.63;;;13.70;99.90;;;;;;5028875;28;20024;-53
2023/08/08 05:11:22;;;;;;;12.52;3.53;;;13.70;99.90;;;;;;5033433;28;20548;-57
2023/08/08 05:13:48;;;;;;;6.95;3.35;;;13.80;99.90;;;;;;5029212;28;20039;-54
2023/08/08 05:16:14;;;;;;;14.43;4.05;;;13.90;99.90;;;;;;5031515;28;20108;-51
2023/08/08 05:18:40;;;;;;;13.93;4.75;;;13.90;99.90;;;;;;5037723;28;20029;-58
2023/08/08 05:21:06;;;;;;;12.15;3.58;;;14.00;99.90;;;;;;5037482;28;20638;-53
2023/08/08 05:23:32;;;;;;;14.35;3.65;;;14.10;99.90;;;;;;5031696;28;20049;-54
2023/08/08 05:25:58;;;;;;;7.50;3.70;;;14.10;99.90;;;;;;5033184;28;20037;-55
2023/08/08 05:28:24;;;;;;;13.75;4.05;;;14.10;99.90;;;;;;5030852;28;20034;-55
2023/08/08 05:30:49;;;;;;;10.80;3.42;;;14.30;99.90;;;;;;5037853;28;20037;-60
2023/08/08 05:33:15;;;;;;;13.30;3.47;;;14.40;99.90;;;;;;5030951;28;20486;-57
2023/08/08 05:35:40;;;;;;;9.88;4.07;;;14.40;99.90;;;;;;5032814;28;20037;-53
2023/08/08 05:38:06;;;;;;;14.20;4.18;;;14.40;99.90;;;;;;5032741;28;20021;-56
2023/08/08 05:40:36;;;;;;;7.80;3.58;;;14.40;99.90;;;;;;5035528;28;20065;-56
2023/08/08 05:43:02;;;;;;;11.57;3.75;;;14.40;99.90;;;;;;5029313;28;20052;-52
2023/08/08 05:45:27;;;;;;;18.70;4.30;;;14.40;99.90;;;;;;5031076;28;20108;-55
2023/08/08 05:47:54;;;;;;;12.57;3.72;;;14.50;99.90;;;;;;5026515;28;20116;-58
2023/08/08 05:50:20;;;;;;;25.00;4.43;;;14.50;99.90;;;;;;5034346;28;20052;-57
2023/08/08 05:52:45;;;;;;;10.27;4.25;;;14.50;99.90;;;;;;5034240;28;20492;-55
2023/08/08 05:55:11;;;;;;;12.98;3.75;;;14.60;99.90;;;;;;5030107;28;20093;-53
2023/08/08 05:57:37;;;;;;;20.90;4.82;;;14.60;99.90;;;;;;5033137;28;20494;-52
2023/08/08 06:00:03;;;;;;;14.15;4.40;;;14.60;99.90;;;;;;5031416;28;20040;-60
2023/08/08 06:02:29;;;;;;;10.98;4.47;;;14.70;99.90;;;;;;5033247;28;20025;-57
2023/08/08 06:04:54;;;;;;;13.95;4.70;;;14.70;99.90;;;;;;5034719;28;20523;-58
2023/08/08 06:07:20;;;;;;;12.98;4.32;;;14.80;99.90;;;;;;5037058;28;20052;-57
2023/08/08 06:09:46;;;;;;;10.65;4.63;;;14.90;99.90;;;;;;5030234;28;20416;-51
2023/08/08 06:12:12;;;;;;;16.88;4.40;;;14.90;99.90;;;;;;5033005;28;20044;-58
2023/08/08 06:14:37;;;;;;;19.38;4.95;;;15.00;99.90;;;;;;5027813;28;20033;-56
2023/08/08 06:17:03;;;;;;;14.75;4.20;;;15.00;99.90;;;;;;5033065;28;20697;-56
2023/08/08 06:19:29;;;;;;;20.83;4.47;;;15.10;99.90;;;;;;5030661;28;20040;-53
2023/08/08 06:21:54;;;;;;;10.77;4.90;;;15.10;99.90;;;;;;5031810;28;20022;-54
2023/08/08 06:24:20;;;;;;;13.68;5.60;;;15.20;99.90;;;;;;5028035;28;20087;-57
2023/08/08 06:26:45;;;;;;;6.50;3.63;;;15.20;99.90;;;;;;5035526;28;20030;-58
2023/08/08 06:29:12;;;;;;;15.35;3.70;;;15.30;99.90;;;;;;5024991;28;20486;-58
2023/08/08 06:31:37;;;;;;;16.83;4.10;;;15.40;99.90;;;;;;5032412;28;20444;-59
2023/08/08 06:34:03;;;;;;;20.52;3.67;;;15.50;99.90;;;;;;5028134;28;20030;-61
2023/08/08 06:36:29;;;;;;;12.02;4.57;;;15.60;99.90;;;;;;5031313;28;20029;-59
2023/08/08 06:38:54;;;;;;;11.82;2.92;;;15.70;99.90;;;;;;5037989;28;20025;-56
2023/08/08 06:41:20;;;;;;;8.95;2.85;;;15.80;99.90;;;;;;5034053;28;20032;-59
2023/08/08 06:43:45;;;;;;;7.35;2.67;;;15.80;99.90;;;;;;5032397;28;20443;-60
2023/08/08 06:46:11;;;;;;;14.35;3.50;;;15.80;99.90;;;;;;5031280;28;20037;-58
2023/08/08 06:48:36;;;;;;;10.73;2.90;;;15.80;99.90;;;;;;5029479;28;20029;-61
2023/08/08 06:51:02;;;;;;;12.05;3.33;;;15.80;99.90;;;;;;5034268;28;20083;-61
2023/08/08 06:53:27;;;;;;;10.15;2.72;;;15.80;99.90;;;;;;5034913;28;20033;-61
2023/08/08 06:55:53;;;;;;;15.48;3.13;;;15.80;99.90;;;;;;5033021;28;20068;-57
2023/08/08 06:58:18;;;;;;;13.20;2.67;;;15.90;99.90;;;;;;5033922;28;20457;-61
2023/08/08 07:00:45;;;;;;;10.75;3.08;;;16.00;99.90;;;;;;5032376;28;20536;-59
2023/08/08 07:03:10;;;;;;;7.93;2.55;;;16.10;99.90;;;;;;5029604;28;20036;-57
2023/08/08 07:05:37;;;;;;;14.98;2.97;;;16.10;99.90;;;;;;5031511;28;20053;-58
2023/08/08 07:08:03;;;;;;;10.85;2.75;;;16.10;99.90;;;;;;5031100;28;20026;-58
2023/08/08 07:10:29;;;;;;;15.20;3.17;;;16.10;99.90;;;;;;5031937;28;20025;-60
2023/08/08 07:12:55;;;;;;;15.70;3.53;;;16.20;99.90;;;;;;5031469;28;20030;-61
2023/08/08 07:15:20;;;;;;;11.25;2.50;;;16.20;99.90;;;;;;5031490;28;20088;-59
2023/08/08 07:17:45;;;;;;;14.23;2.67;;;16.20;99.90;;;;;;5029993;28;20138;-61
2023/08/08 07:20:13;;;;;;;10.82;3.97;;;16.20;99.90;;;;;;5036527;28;20507;-60
2023/08/08 07:22:39;;;;;;;10.38;2.88;;;16.30;99.90;;;;;;5032036;28;20478;-59
2023/08/08 07:25:05;;;;;;;11.63;3.60;;;16.30;99.90;;;;;;5028532;28;20037;-57
2023/08/08 07:27:31;;;;;;;13.35;4.13;;;16.40;99.90;;;;;;5033300;28;20127;-58
2023/08/08 07:29:56;;;;;;;11.05;3.30;;;16.40;99.90;;;;;;5032971;28;20025;-58
2023/08/08 07:32:22;;;;;;;10.10;3.28;;;16.40;99.90;;;;;;5035991;28;20408;-60
2023/08/08 07:34:47;;;;;;;10.65;3.33;;;16.50;99.90;;;;;;5032764;28;20029;-57
2023/08/08 07:37:14;;;;;;;12.13;3.40;;;16.50;99.90;;;;;;5026957;28;20037;-54
2023/08/08 07:39:40;;;;;;;6.47;3.10;;;16.40;99.90;;;;;;5030267;28;20033;-50
2023/08/08 07:42:05;;;;;;;13.73;3.55;;;16.40;99.90;;;;;;5033491;28;20504;-50
2023/08/08 07:44:34;;;;;;;12.27;3.70;;;16.50;99.90;;;;;;5031800;28;20480;-50
2023/08/08 07:46:59;;;;;;;14.48;3.35;;;16.60;99.90;;;;;;5034406;28;20018;-53
2023/08/08 07:49:25;;;;;;;12.65;3.60;;;16.60;99.90;;;;;;5031222;28;20037;-55
2023/08/08 07:51:50;;;;;;;10.85;3.38;;;16.50;99.90;;;;;;5033502;28;20412;-59
2023/08/08 07:54:16;;;;;;;5.43;3.38;;;16.50;99.90;;;;;;5024910;28;20034;-54
2023/08/08 07:56:42;;;;;;;11.18;4.45;;;16.50;99.90;;;;;;5030864;28;20037;-56
2023/08/08 07:59:09;;;;;;;9.32;3.60;;;16.60;99.90;;;;;;5032240;28;20026;-57
2023/08/08 08:01:34;;;;;;;9.15;3.35;;;16.70;99.90;;;;;;5036673;28;20017;-55
2023/08/08 08:04:00;;;;;;;11.48;3.90;;;16.80;99.90;;;;;;5030484;28;20398;-57
2023/08/08 08:06:25;;;;;;;11.52;4.32;;;16.90;99.90;;;;;;5034344;28;20079;-58
2023/08/08 08:08:51;;;;;;;19.35;4.47;;;17.10;99.90;;;;;;5036043;28;20023;-52
2023/08/08 08:11:17;;;;;;;15.10;3.60;;;17.20;99.90;;;;;;5028195;28;20065;-57
2023/08/08 08:13:42;;;;;;;10.68;4.70;;;17.20;99.90;;;;;;5028509;28;20111;-56
2023/08/08 08:16:08;;;;;;;12.63;4.68;;;17.30;99.90;;;;;;5032222;28;20485;-55
2023/08/08 08:18:34;;;;;;;10.05;4.38;;;17.40;99.90;;;;;;5032339;28;20021;-55
2023/08/08 08:21:00;;;;;;;11.77;3.92;;;17.40;99.90;;;;;;5034504;28;20030;-54
2023/08/08 08:23:26;;;;;;;11.90;3.78;;;17.60;99.90;;;;;;5038435;28;20722;-54
2023/08/08 08:25:51;;;;;;;14.55;4.05;;;17.70;99.90;;;;;;5035837;28;20021;-53
2023/08/08 08:28:17;;;;;;;16.08;4.50;;;17.60;99.90;;;;;;5033989;28;20029;-55
2023/08/08 08:30:43;;;;;;;12.90;4.25;;;17.60;99.90;;;;;;5031618;28;20408;-56
2023/08/08 08:33:09;;;;;;;16.90;4.40;;;17.30;99.90;;;;;;5030770;28;20034;-56
2023/08/08 08:35:35;;;;;;;11.95;4.25;;;17.30;99.90;;;;;;5032331;28;20408;-57
2023/08/08 08:38:00;;;;;;;16.70;4.70;;;17.40;99.90;;;;;;5031869;28;20067;-56
2023/08/08 08:40:28;;;;;;;6.95;4.03;;;17.50;99.90;;;;;;5032291;28;20505;-60
2023/08/08 08:42:54;;;;;;;11.93;4.05;;;17.70;99.90;;;;;;5037002;28;20041;-56
2023/08/08 08:45:23;;;;;;;11.15;4.18;;;17.80;99.90;;;;;;5036519;28;20024;-55
2023/08/08 08:47:52;;;;;;;12.38;4.22;;;17.80;99.90;;;;;;5033456;28;20045;-62
2023/08/08 08:50:18;;;;;;;10.63;4.03;;;17.80;99.90;;;;;;5029070;28;20680;-57
2023/08/08 08:52:44;;;;;;;8.27;3.42;;;17.60;99.90;;;;;;5033985;28;20043;-54
2023/08/08 08:55:10;;;;;;;11.98;4.07;;;17.60;99.90;;;;;;5034780;28;20037;-57
2023/08/08 08:57:37;;;;;;;9.30;3.97;;;17.60;99.90;;;;;;5028327;28;20082;-55
2023/08/08 09:00:03;;;;;;;11.65;4.43;;;17.70;99.90;;;;;;5030109;28;20516;-59
2023/08/08 09:02:29;;;;;;;8.07;3.40;;;17.60;99.90;;;;;;5029018;28;20451;-53
2023/08/08 09:04:55;;;;;;;10.43;3.67;;;17.70;99.90;;;;;;5030845;28;20033;-58
2023/08/08 09:07:26;;;;;;;19.52;3.75;;;17.70;99.90;;;;;;5029627;28;22033;-57
2023/08/08 09:09:52;;;;;;;14.25;4.10;;;17.70;99.90;;;;;;5031942;28;20373;-57
2023/08/08 09:12:18;;;;;;;13.43;4.00;;;17.80;99.90;;;;;;5028464;28;20021;-55
2023/08/08 09:14:43;;;;;;;7.25;3.50;;;18.00;99.90;;;;;;5026105;28;20572;-58
2023/08/08 09:17:13;;;;;;;11.18;3.80;;;18.10;99.90;;;;;;5028236;28;20120;-58
2023/08/08 09:19:44;;;;;;;7.53;3.05;;;18.10;99.90;;;;;;5026192;28;20354;-57
2023/08/08 09:22:09;;;;;;;11.73;3.67;;;18.10;99.90;;;;;;5029053;28;20057;-54
2023/08/08 09:24:41;;;;;;;5.65;3.15;;;17.90;99.90;;;;;;5034751;28;20053;-56
2023/08/08 09:27:08;;;;;;;9.93;3.13;;;18.10;99.90;;;;;;5029500;28;20029;-56
2023/08/08 09:29:34;;;;;;;10.73;3.78;;;18.00;99.90;;;;;;5032563;28;20029;-57
2023/08/08 09:32:04;;;;;;;10.05;3.60;;;17.80;99.90;;;;;;5033897;28;20041;-56
2023/08/08 09:34:29;;;;;;;10.27;3.72;;;18.00;99.90;;;;;;5032468;28;20037;-56
2023/08/08 09:36:55;;;;;;;9.57;3.53;;;18.00;99.90;;;;;;5030236;28;20037;-57
2023/08/08 09:39:21;;;;;;;8.57;3.28;;;18.10;99.90;;;;;;5034856;28;20034;-57
2023/08/08 09:41:47;;;;;;;11.90;3.33;;;18.20;99.90;;;;;;5029866;28;20017;-58
2023/08/08 09:44:13;;;;;;;6.22;2.72;;;18.30;99.90;;;;;;5030637;28;20029;-61
2023/08/08 09:46:39;;;;;;;7.50;2.85;;;18.40;99.90;;;;;;5032329;28;20021;-60
2023/08/08 09:49:05;;;;;;;11.52;3.70;;;18.50;99.90;;;;;;5027959;28;20063;-58
2023/08/08 09:51:33;;;;;;;8.23;3.22;;;18.70;99.90;;;;;;5033479;28;20095;-60
2023/08/08 09:53:59;;;;;;;6.28;2.95;;;18.80;99.90;;;;;;5035537;28;20393;-59
2023/08/08 09:56:27;;;;;;;6.97;2.75;;;18.90;99.90;;;;;;5031812;28;20239;-57
2023/08/08 09:58:53;;;;;;;11.20;2.65;;;18.90;99.90;;;;;;5040141;28;20103;-57
2023/08/08 10:01:20;;;;;;;4.30;2.28;;;18.70;99.90;;;;;;5032291;28;20163;-55
2023/08/08 10:03:46;;;;;;;8.38;2.70;;;18.70;99.90;;;;;;5038027;28;20053;-56
2023/08/08 10:06:12;;;;;;;5.43;2.67;;;18.40;99.90;;;;;;5037579;28;20731;-55
2023/08/08 10:08:38;;;;;;;9.45;2.47;;;18.40;99.90;;;;;;5035825;28;20184;-56
2023/08/08 10:11:07;;;;;;;8.68;2.78;;;18.40;99.90;;;;;;5024993;28;20135;-61
2023/08/08 10:13:35;;;;;;;13.60;2.60;;;18.50;99.90;;;;;;5033315;28;20033;-57
2023/08/08 10:16:08;;;;;;;9.60;3.20;;;18.60;99.90;;;;;;5025378;28;20501;-58
2023/08/08 10:18:34;;;;;;;8.85;2.45;;;18.70;99.90;;;;;;5036750;28;20461;-55
2023/08/08 10:20:59;;;;;;;11.73;2.90;;;18.70;99.90;;;;;;5027608;28;20116;-57
2023/08/08 10:23:25;;;;;;;9.85;2.58;;;18.80;99.90;;;;;;5033526;28;20026;-58
2023/08/08 10:25:52;;;;;;;6.35;2.30;;;18.60;99.90;;;;;;5035716;28;20036;-57
2023/08/08 10:28:20;;;;;;;7.18;2.70;;;18.60;99.90;;;;;;5031025;28;20503;-57
2023/08/08 10:30:47;;;;;;;7.15;2.67;;;18.50;99.90;;;;;;5028373;28;20089;-57
2023/08/08 10:33:42;;;;;;;4.95;1.88;;;18.50;99.90;;;;;;5025195;28;20038;-58
2023/08/08 10:36:09;;;;;;;7.15;2.35;;;18.80;99.90;;;;;;5034983;28;20413;-57
2023/08/08 10:38:46;;;;;;;6.35;2.65;;;18.90;99.90;;;;;;5030478;28;20033;-56
2023/08/08 10:41:20;;;;;;;8.48;2.83;;;19.10;99.90;;;;;;5029831;28;20025;-56
2023/08/08 10:43:57;;;;;;;4.97;2.17;;;19.20;99.90;;;;;;5029666;28;20032;-59
2023/08/08 10:46:28;;;;;;;7.75;2.50;;;19.30;99.90;;;;;;5029924;28;20405;-58
2023/08/08 10:48:59;;;;;;;7.20;2.00;;;19.10;99.90;;;;;;5029230;28;20032;-57
2023/08/08 10:51:36;;;;;;;5.60;1.83;;;19.10;99.90;;;;;;5030829;28;20040;-57
2023/08/08 10:54:12;;;;;;;8.93;2.15;;;19.00;99.90;;;;;;5033415;28;20435;-59
2023/08/08 10:56:38;;;;;;;7.15;2.13;;;19.00;99.90;;;;;;5035752;28;20075;-51
2023/08/08 10:59:15;;;;;;;6.13;2.00;;;19.00;99.90;;;;;;5032422;28;20489;-55
2023/08/08 11:01:41;;;;;;;6.75;1.92;;;19.10;99.90;;;;;;5026259;28;20026;-59
2023/08/08 11:04:07;;;;;;;8.88;2.20;;;19.10;99.90;;;;;;5028494;28;20020;-55
2023/08/08 11:06:34;;;;;;;9.20;2.15;;;19.00;99.90;;;;;;5028337;28;20036;-60
2023/08/08 11:09:01;;;;;;;13.02;2.03;;;18.90;99.90;;;;;;5028480;28;20075;-58
2023/08/08 11:11:26;;;;;;;7.00;1.67;;;19.00;99.90;;;;;;5029171;28;20222;-54
2023/08/08 11:13:52;;;;;;;5.22;1.90;;;18.90;99.90;;;;;;5030294;28;20509;-58
2023/08/08 11:16:19;;;;;;;5.25;1.52;;;19.00;99.90;;;;;;5027693;28;20025;-55
2023/08/08 11:18:45;;;;;;;9.68;2.17;;;18.90;99.90;;;;;;5028394;28;20075;-52
2023/08/08 11:21:11;;;;;;;10.32;2.40;;;18.90;99.90;;;;;;5024377;28;20041;-55
2023/08/08 11:23:38;;;;;;;6.93;2.05;;;19.00;99.90;;;;;;5029801;28;20026;-58
2023/08/08 11:26:04;;;;;;;8.93;2.33;;;18.90;99.90;;;;;;5025532;28;20018;-61
2023/08/08 11:28:29;;;;;;;10.65;2.47;;;19.00;99.90;;;;;;5022460;28;20409;-57
2023/08/08 11:30:55;;;;;;;7.43;2.33;;;18.90;99.90;;;;;;5024980;28;20030;-55
2023/08/08 11:33:22;;;;;;;4.55;2.03;;;19.10;99.90;;;;;;5028461;28;20091;-57
2023/08/08 11:35:49;;;;;;;4.43;1.70;;;19.20;99.90;;;;;;5025350;28;20048;-57
2023/08/08 11:38:15;;;;;;;3.78;1.63;;;19.30;99.90;;;;;;5026483;28;20033;-56
2023/08/08 11:40:41;;;;;;;6.53;1.85;;;19.50;99.90;;;;;;5030080;28;20025;-61
2023/08/08 11:43:07;;;;;;;5.28;1.50;;;19.70;99.90;;;;;;5022671;28;20159;-56
2023/08/08 11:45:33;;;;;;;4.40;1.52;;;19.70;99.90;;;;;;5024300;28;20034;-53
2023/08/08 11:47:59;;;;;;;7.63;1.88;;;20.20;99.90;;;;;;5027957;28;20025;-55
2023/08/08 11:50:27;;;;;;;8.13;1.70;;;20.00;99.90;;;;;;5025834;28;20036;-52
2023/08/08 11:52:54;;;;;;;5.95;1.60;;;20.20;99.90;;;;;;5033779;28;20066;-51
2023/08/08 11:55:23;;;;;;;4.50;1.60;;;20.30;99.90;;;;;;5035596;28;20032;-56
2023/08/08 11:57:49;;;;;;;5.72;2.00;;;20.10;99.90;;;;;;5027440;28;20572;-53
2023/08/08 12:00:16;;;;;;;5.13;1.38;;;20.20;99.90;;;;;;5027907;28;20116;-52
2023/08/08 12:02:45;;;;;;;3.20;1.73;;;19.90;99.90;;;;;;5033149;28;20017;-48
2023/08/08 12:05:13;;;;;;;5.25;1.60;;;19.80;99.90;;;;;;5040235;28;20021;-51
2023/08/08 12:07:41;;;;;;;4.05;1.80;;;19.60;99.90;;;;;;5035531;28;20469;-56
2023/08/08 12:10:14;;;;;;;2.30;1.42;;;19.40;99.90;;;;;;5033253;28;20041;-58
2023/08/08 12:12:40;;;;;;;5.63;1.60;;;19.50;99.90;;;;;;5033139;28;20449;-57
2023/08/08 12:15:09;;;;;;;6.25;1.73;;;19.50;99.90;;;;;;5028566;28;20049;-61
2023/08/08 12:17:36;;;;;;;11.88;1.77;;;19.60;99.90;;;;;;5031553;28;20552;-62
2023/08/08 12:20:06;;;;;;;2.22;1.20;;;19.40;99.90;;;;;;5024351;28;20026;-61
2023/08/08 12:22:32;;;;;;;5.50;1.90;;;19.60;99.90;;;;;;5024121;28;20441;-57
2023/08/08 12:24:58;;;;;;;6.90;1.70;;;19.80;99.90;;;;;;5031463;28;20026;-61
2023/08/08 12:27:23;;;;;;;5.57;1.42;;;19.80;99.90;;;;;;5033467;28;20401;-60
2023/08/08 12:29:49;;;;;;;5.45;1.27;;;19.80;99.90;;;;;;5035450;28;20032;-59
2023/08/08 12:32:14;;;;;;;5.70;1.85;;;19.60;99.90;;;;;;5028867;28;20030;-59
2023/08/08 12:34:40;;;;;;;3.15;1.35;;;19.60;99.90;;;;;;5036896;28;20034;-59
2023/08/08 12:37:06;;;;;;;3.08;1.60;;;19.50;99.90;;;;;;5029293;28;20063;-61
2023/08/08 12:39:31;;;;;;;6.47;1.77;;;19.50;99.90;;;;;;5031547;28;20061;-59